Time;durP1;ratioP1;P1;durP2;ratioP2;P2;SDS_P1;SDS_P2;PMS_P1;PMS_P2;Temp;Humidity;BMP_temperature;BMP_pressure;BME280_temperature;BME280_humidity;BME280_pressure;Samples;Min_cycle;Max_cycle;Signal;HPM_P1;HPM_P2
2023/09/09 00:00:16;;;;;;;;;;;;;;;;;;1045176;28;3169;-55
2023/09/09 00:01:06;;;;;;;;;;;;;;;;;;1037175;28;4069;-55
2023/09/09 00:01:38;;;;;;;;;;;;;;;;;;1037481;28;4484;-51
2023/09/09 00:02:08;;;;;;;;;;;;;;;;;;1041059;28;3122;-53
2023/09/09 00:02:39;;;;;;;;;;;;;;;;;;1043957;28;4128;-52
2023/09/09 00:03:09;;;;;;;;;;;;;;;;;;1045193;28;2961;-54
2023/09/09 00:03:39;;;;;;;;;;;;;;;;;;1046743;28;3939;-53
2023/09/09 00:04:10;;;;;;;;;;;;;;;;;;1044155;28;3875;-54
2023/09/09 00:04:40;;;;;;;;;;;;;;;;;;1045908;28;3940;-51
2023/09/09 00:05:11;;;;;;;;;;;;;;;;;;1045270;28;2902;-50
2023/09/09 00:05:41;;;;;;;;;;;;;;;;;;1046930;28;3829;-54
2023/09/09 00:06:12;;;;;;;;;;;;;;;;;;1044643;28;3194;-51
2023/09/09 00:06:42;;;;;;;;;;;;;;;;;;1047027;28;3922;-51
2023/09/09 00:07:12;;;;;;;;;;;;;;;;;;1045825;28;3057;-54
2023/09/09 00:07:43;;;;;;;;;;;;;;;;;;1046506;28;3985;-51
2023/09/09 00:08:15;;;;;;;;;;;;;;;;;;1046948;28;2669;-56
2023/09/09 00:08:45;;;;;;;;;;;;;;;;;;1046349;28;5029;-54
2023/09/09 00:09:16;;;;;;;;;;;;;;;;;;1046808;28;3186;-53
2023/09/09 00:09:46;;;;;;;;;;;;;;;;;;1041958;28;3984;-53
2023/09/09 00:10:16;;;;;;;;;;;;;;;;;;1043141;28;2951;-53
2023/09/09 00:10:47;;;;;;;;;;;;;;;;;;1046435;28;3942;-53
2023/09/09 00:11:19;;;;;;;;;;;;;;;;;;1045381;28;3165;-54
2023/09/09 00:11:49;;;;;;;;;;;;;;;;;;1044880;28;4018;-50
2023/09/09 00:12:19;;;;;;;;;;;;;;;;;;1046390;28;1770;-55
2023/09/09 00:12:50;;;;;;;;;;;;;;;;;;1039226;28;3943;-52
2023/09/09 00:13:20;;;;;;;;;;;;;;;;;;1036811;28;2929;-54
2023/09/09 00:13:51;;;;;;;;;;;;;;;;;;1033536;28;3785;-54
2023/09/09 00:14:22;;;;;;;;;;;;;;;;;;1035714;28;1633;-53
2023/09/09 00:14:53;;;;;;;;;;;;;;;;;;1037032;28;4089;-52
2023/09/09 00:15:23;;;;;;;;;;;;;;;;;;1035688;28;3104;-53
2023/09/09 00:15:54;;;;;;;;;;;;;;;;;;1033698;28;3953;-55
2023/09/09 00:16:24;;;;;;;;;;;;;;;;;;1033503;28;3094;-56
2023/09/09 00:16:54;;;;;;;;;;;;;;;;;;1036655;28;3967;-51
2023/09/09 00:17:25;;;;;;;;;;;;;;;;;;1037736;28;3085;-55
2023/09/09 00:17:55;;;;;;;;;;;;;;;;;;1034613;28;3837;-54
2023/09/09 00:18:26;;;;;;;;;;;;;;;;;;1033927;28;3087;-54
2023/09/09 00:18:56;;;;;;;;;;;;;;;;;;1036443;28;4065;-53
2023/09/09 00:19:28;;;;;;;;;;;;;;;;;;1038881;28;2698;-52
2023/09/09 00:19:58;;;;;;;;;;;;;;;;;;1038830;28;3803;-53
2023/09/09 00:20:29;;;;;;;;;;;;;;;;;;1038424;28;2191;-55
2023/09/09 00:21:00;;;;;;;;;;;;;;;;;;1038734;28;4253;-54
2023/09/09 00:21:30;;;;;;;;;;;;;;;;;;1037283;28;4039;-57
2023/09/09 00:22:01;;;;;;;;;;;;;;;;;;1039177;28;1666;-56
2023/09/09 00:22:31;;;;;;;;;;;;;;;;;;1044097;28;3821;-55
2023/09/09 00:23:07;;;;;;;;;;;;;;;;;;1045407;28;3110;-52
2023/09/09 00:23:37;;;;;;;;;;;;;;;;;;1046106;28;4022;-54
2023/09/09 00:24:08;;;;;;;;;;;;;;;;;;1042853;28;3120;-55
2023/09/09 00:24:38;;;;;;;;;;;;;;;;;;1040413;28;3986;-54
2023/09/09 00:25:08;;;;;;;;;;;;;;;;;;1039051;28;3092;-56
2023/09/09 00:25:39;;;;;;;;;;;;;;;;;;1037728;28;4428;-55
2023/09/09 00:26:10;;;;;;;;;;;;;;;;;;1037145;28;3137;-54
2023/09/09 00:26:40;;;;;;;;;;;;;;;;;;1033653;28;3984;-53
2023/09/09 00:27:11;;;;;;;;;;;;;;;;;;1039258;28;3346;-51
2023/09/09 00:27:41;;;;;;;;;;;;;;;;;;1040968;28;3861;-52
2023/09/09 00:28:11;;;;;;;;;;;;;;;;;;1040564;28;3115;-50
2023/09/09 00:28:42;;;;;;;;;;;;;;;;;;1037797;28;4054;-52
2023/09/09 00:29:12;;;;;;;;;;;;;;;;;;1036455;28;3087;-53
2023/09/09 00:29:42;;;;;;;;;;;;;;;;;;1037160;28;4033;-52
2023/09/09 00:30:13;;;;;;;;;;;;;;;;;;1037830;28;3411;-56
2023/09/09 00:30:43;;;;;;;;;;;;;;;;;;1037155;28;4160;-53
2023/09/09 00:31:13;;;;;;;;;;;;;;;;;;1036602;28;3122;-51
2023/09/09 00:31:44;;;;;;;;;;;;;;;;;;1037378;28;4403;-55
2023/09/09 00:32:14;;;;;;;;;;;;;;;;;;1036299;28;2970;-52
2023/09/09 00:32:44;;;;;;;;;;;;;;;;;;1037901;28;4410;-52
2023/09/09 00:33:15;;;;;;;;;;;;;;;;;;1038167;28;2757;-52
2023/09/09 00:33:45;;;;;;;;;;;;;;;;;;1036423;28;3984;-50
2023/09/09 00:34:16;;;;;;;;;;;;;;;;;;1038136;28;3291;-54
2023/09/09 00:34:46;;;;;;;;;;;;;;;;;;1038334;28;4587;-52
2023/09/09 00:35:16;;;;;;;;;;;;;;;;;;1036849;28;3588;-56
2023/09/09 00:35:47;;;;;;;;;;;;;;;;;;1037085;28;3921;-53
2023/09/09 00:36:17;;;;;;;;;;;;;;;;;;1040216;28;1913;-51
2023/09/09 00:36:47;;;;;;;;;;;;;;;;;;1037465;28;3870;-49
2023/09/09 00:37:17;;;;;;;;;;;;;;;;;;1037574;28;3061;-52
2023/09/09 00:37:48;;;;;;;;;;;;;;;;;;1037167;28;4157;-54
2023/09/09 00:38:18;;;;;;;;;;;;;;;;;;1038343;28;3172;-54
2023/09/09 00:38:48;;;;;;;;;;;;;;;;;;1039685;28;4028;-50
2023/09/09 00:39:19;;;;;;;;;;;;;;;;;;1040363;28;2979;-51
2023/09/09 00:39:49;;;;;;;;;;;;;;;;;;1038953;28;3984;-54
2023/09/09 00:40:19;;;;;;;;;;;;;;;;;;1040159;28;2048;-50
2023/09/09 00:41:10;;;;;;;;;;;;;;;;;;1038627;28;4018;-52
2023/09/09 00:41:40;;;;;;;;;;;;;;;;;;1038039;28;3968;-55
2023/09/09 00:42:10;;;;;;;;;;;;;;;;;;1037246;28;3052;-51
2023/09/09 00:42:41;;;;;;;;;;;;;;;;;;1037146;28;3823;-52
2023/09/09 00:43:11;;;;;;;;;;;;;;;;;;1037748;28;3092;-54
2023/09/09 00:43:41;;;;;;;;;;;;;;;;;;1033535;28;4429;-55
2023/09/09 00:44:12;;;;;;;;;;;;;;;;;;1036906;28;3781;-52
2023/09/09 00:44:42;;;;;;;;;;;;;;;;;;1034163;28;4423;-54
2023/09/09 00:45:12;;;;;;;;;;;;;;;;;;1035194;28;3748;-54
2023/09/09 00:45:43;;;;;;;;;;;;;;;;;;1035437;28;3974;-56
2023/09/09 00:46:14;;;;;;;;;;;;;;;;;;1038886;28;2024;-51
2023/09/09 00:46:45;;;;;;;;;;;;;;;;;;1036765;28;4072;-53
2023/09/09 00:47:16;;;;;;;;;;;;;;;;;;1037220;28;3436;-55
2023/09/09 00:47:46;;;;;;;;;;;;;;;;;;1036902;28;3891;-55
2023/09/09 00:48:17;;;;;;;;;;;;;;;;;;1038410;28;3503;-51
2023/09/09 00:48:47;;;;;;;;;;;;;;;;;;1036764;28;3967;-51
2023/09/09 00:49:17;;;;;;;;;;;;;;;;;;1038841;28;1745;-54
2023/09/09 00:49:48;;;;;;;;;;;;;;;;;;1039367;28;3937;-53
2023/09/09 00:50:18;;;;;;;;;;;;;;;;;;1036775;28;3891;-54
2023/09/09 00:50:49;;;;;;;;;;;;;;;;;;1037096;28;4063;-52
2023/09/09 00:51:19;;;;;;;;;;;;;;;;;;1039323;28;1863;-49
2023/09/09 00:51:50;;;;;;;;;;;;;;;;;;1038843;28;3876;-52
2023/09/09 00:52:20;;;;;;;;;;;;;;;;;;1035868;28;3421;-56
2023/09/09 00:52:51;;;;;;;;;;;;;;;;;;1036154;28;4073;-58
2023/09/09 00:53:21;;;;;;;;;;;;;;;;;;1037472;28;3461;-53
2023/09/09 00:53:52;;;;;;;;;;;;;;;;;;1037096;28;3736;-54
2023/09/09 00:54:22;;;;;;;;;;;;;;;;;;1035978;28;3057;-50
2023/09/09 00:54:53;;;;;;;;;;;;;;;;;;1036357;28;4027;-55
2023/09/09 00:55:24;;;;;;;;;;;;;;;;;;1037978;28;3642;-52
2023/09/09 00:55:54;;;;;;;;;;;;;;;;;;1037496;28;4014;-53
2023/09/09 00:56:25;;;;;;;;;;;;;;;;;;1038269;28;1424;-54
2023/09/09 00:56:58;;;;;;;;;;;;;;;;;;1038121;28;3975;-54
2023/09/09 00:57:28;;;;;;;;;;;;;;;;;;1039267;28;3612;-49
2023/09/09 00:57:59;;;;;;;;;;;;;;;;;;1037461;28;3870;-54
2023/09/09 00:58:30;;;;;;;;;;;;;;;;;;1039170;28;2356;-50
2023/09/09 00:59:01;;;;;;;;;;;;;;;;;;1036231;28;3819;-52
2023/09/09 00:59:31;;;;;;;;;;;;;;;;;;1037267;28;3788;-56
2023/09/09 01:00:09;;;;;;;;;;;;;;;;;;1037107;28;3068;-54
2023/09/09 01:00:40;;;;;;;;;;;;;;;;;;1034182;28;3855;-55
2023/09/09 01:01:10;;;;;;;;;;;;;;;;;;1038127;28;2829;-52
2023/09/09 01:01:40;;;;;;;;;;;;;;;;;;1036953;28;4002;-51
2023/09/09 01:02:11;;;;;;;;;;;;;;;;;;1037805;28;3610;-52
2023/09/09 01:02:41;;;;;;;;;;;;;;;;;;1037199;28;4029;-53
2023/09/09 01:03:12;;;;;;;;;;;;;;;;;;1038640;28;1628;-55
2023/09/09 01:03:42;;;;;;;;;;;;;;;;;;1038885;28;4083;-53
2023/09/09 01:04:12;;;;;;;;;;;;;;;;;;1039574;28;3773;-51
2023/09/09 01:04:43;;;;;;;;;;;;;;;;;;1038093;28;4008;-52
2023/09/09 01:05:14;;;;;;;;;;;;;;;;;;1039718;28;3551;-51
2023/09/09 01:05:45;;;;;;;;;;;;;;;;;;1046865;28;4009;-55
2023/09/09 01:06:15;;;;;;;;;;;;;;;;;;1046430;28;2816;-54
2023/09/09 01:06:45;;;;;;;;;;;;;;;;;;1041698;28;4058;-54
2023/09/09 01:07:16;;;;;;;;;;;;;;;;;;1043796;28;3637;-52
2023/09/09 01:07:47;;;;;;;;;;;;;;;;;;1036705;28;4032;-51
2023/09/09 01:08:27;;;;;;;;;;;;;;;;;;1037435;28;3359;-53
2023/09/09 01:09:04;;;;;;;;;;;;;;;;;;1037905;28;4018;-54
2023/09/09 01:09:34;;;;;;;;;;;;;;;;;;1038366;28;4118;-51
2023/09/09 01:10:04;;;;;;;;;;;;;;;;;;1037689;28;3385;-54
2023/09/09 01:10:35;;;;;;;;;;;;;;;;;;1034407;28;3982;-53
2023/09/09 01:11:05;;;;;;;;;;;;;;;;;;1036929;28;3115;-51
2023/09/09 01:11:36;;;;;;;;;;;;;;;;;;1041179;28;3976;-54
2023/09/09 01:12:11;;;;;;;;;;;;;;;;;;1037363;28;3080;-56
2023/09/09 01:12:42;;;;;;;;;;;;;;;;;;1037751;28;4058;-56
2023/09/09 01:13:12;;;;;;;;;;;;;;;;;;1041812;28;3257;-51
2023/09/09 01:13:42;;;;;;;;;;;;;;;;;;1040685;28;4023;-51
2023/09/09 01:14:13;;;;;;;;;;;;;;;;;;1036439;28;3718;-53
2023/09/09 01:14:43;;;;;;;;;;;;;;;;;;1035131;28;4051;-57
2023/09/09 01:15:13;;;;;;;;;;;;;;;;;;1035563;28;3726;-56
2023/09/09 01:15:43;;;;;;;;;;;;;;;;;;1039166;28;3822;-54
2023/09/09 01:16:14;;;;;;;;;;;;;;;;;;1038684;28;3504;-53
2023/09/09 01:16:46;;;;;;;;;;;;;;;;;;1039228;28;4062;-56
2023/09/09 01:17:17;;;;;;;;;;;;;;;;;;1040754;28;3706;-56
2023/09/09 01:17:48;;;;;;;;;;;;;;;;;;1041017;28;3966;-53
2023/09/09 01:18:19;;;;;;;;;;;;;;;;;;1042349;28;3447;-49
2023/09/09 01:18:49;;;;;;;;;;;;;;;;;;1041370;28;3963;-54
2023/09/09 01:19:21;;;;;;;;;;;;;;;;;;1042079;28;3944;-52
2023/09/09 01:19:53;;;;;;;;;;;;;;;;;;1042515;28;3994;-51
2023/09/09 01:20:24;;;;;;;;;;;;;;;;;;1042920;28;1706;-56
2023/09/09 01:21:02;;;;;;;;;;;;;;;;;;1040874;28;3858;-49
2023/09/09 01:21:33;;;;;;;;;;;;;;;;;;1042314;28;3962;-52
2023/09/09 01:22:08;;;;;;;;;;;;;;;;;;1042049;28;3594;-51
2023/09/09 01:22:39;;;;;;;;;;;;;;;;;;1043088;28;4069;-52
2023/09/09 01:23:09;;;;;;;;;;;;;;;;;;1041073;28;3824;-51
2023/09/09 01:23:39;;;;;;;;;;;;;;;;;;1041403;28;3980;-55
2023/09/09 01:24:12;;;;;;;;;;;;;;;;;;1042614;28;3785;-53
2023/09/09 01:24:44;;;;;;;;;;;;;;;;;;1042399;28;3978;-54
2023/09/09 01:25:16;;;;;;;;;;;;;;;;;;1039858;28;3053;-52
2023/09/09 01:25:46;;;;;;;;;;;;;;;;;;1042468;28;3943;-52
2023/09/09 01:26:17;;;;;;;;;;;;;;;;;;1042222;28;1800;-54
2023/09/09 01:26:47;;;;;;;;;;;;;;;;;;1041502;28;4217;-55
2023/09/09 01:27:17;;;;;;;;;;;;;;;;;;1042662;28;3093;-54
2023/09/09 01:27:47;;;;;;;;;;;;;;;;;;1041620;28;3809;-52
2023/09/09 01:28:22;;;;;;;;;;;;;;;;;;1044857;28;3124;-50
2023/09/09 01:28:52;;;;;;;;;;;;;;;;;;1043368;28;4008;-49
2023/09/09 01:29:22;;;;;;;;;;;;;;;;;;1040846;28;3654;-55
2023/09/09 01:29:53;;;;;;;;;;;;;;;;;;1040385;28;3860;-54
2023/09/09 01:30:23;;;;;;;;;;;;;;;;;;1035817;28;3458;-55
2023/09/09 01:30:53;;;;;;;;;;;;;;;;;;1039335;28;3990;-56
2023/09/09 01:31:24;;;;;;;;;;;;;;;;;;1038802;28;2576;-54
2023/09/09 01:31:54;;;;;;;;;;;;;;;;;;1041452;28;4039;-52
2023/09/09 01:32:25;;;;;;;;;;;;;;;;;;1042432;28;2982;-55
2023/09/09 01:32:55;;;;;;;;;;;;;;;;;;1042149;28;4085;-52
2023/09/09 01:33:25;;;;;;;;;;;;;;;;;;1039670;28;3531;-53
2023/09/09 01:33:57;;;;;;;;;;;;;;;;;;1039503;28;3880;-53
2023/09/09 01:34:27;;;;;;;;;;;;;;;;;;1037777;28;3623;-56
2023/09/09 01:34:57;;;;;;;;;;;;;;;;;;1037852;28;3756;-54
2023/09/09 01:35:28;;;;;;;;;;;;;;;;;;1035519;28;3598;-54
2023/09/09 01:35:58;;;;;;;;;;;;;;;;;;1040718;28;5611;-50
2023/09/09 01:36:28;;;;;;;;;;;;;;;;;;1043054;28;1740;-57
2023/09/09 01:36:59;;;;;;;;;;;;;;;;;;1040417;28;3804;-55
2023/09/09 01:37:29;;;;;;;;;;;;;;;;;;1041612;28;3561;-52
2023/09/09 01:37:59;;;;;;;;;;;;;;;;;;1042242;28;3877;-53
2023/09/09 01:38:34;;;;;;;;;;;;;;;;;;1043330;28;1739;-56
2023/09/09 01:39:05;;;;;;;;;;;;;;;;;;1041785;28;3829;-55
2023/09/09 01:39:35;;;;;;;;;;;;;;;;;;1041513;28;3942;-57
2023/09/09 01:40:10;;;;;;;;;;;;;;;;;;1041603;28;3085;-51
2023/09/09 01:40:40;;;;;;;;;;;;;;;;;;1039921;28;3863;-54
2023/09/09 01:41:10;;;;;;;;;;;;;;;;;;1039429;28;3932;-52
2023/09/09 01:41:41;;;;;;;;;;;;;;;;;;1041388;28;3770;-51
2023/09/09 01:42:11;;;;;;;;;;;;;;;;;;1042211;28;3173;-56
2023/09/09 01:42:41;;;;;;;;;;;;;;;;;;1041837;28;3933;-51
2023/09/09 01:43:12;;;;;;;;;;;;;;;;;;1041676;28;3505;-57
2023/09/09 01:43:42;;;;;;;;;;;;;;;;;;1042592;28;4255;-56
2023/09/09 01:44:12;;;;;;;;;;;;;;;;;;1039094;28;3560;-53
2023/09/09 01:44:45;;;;;;;;;;;;;;;;;;1042918;28;3765;-55
2023/09/09 01:45:16;;;;;;;;;;;;;;;;;;1040955;28;3037;-51
2023/09/09 01:45:48;;;;;;;;;;;;;;;;;;1038551;28;3850;-54
2023/09/09 01:46:18;;;;;;;;;;;;;;;;;;1042946;28;1534;-55
2023/09/09 01:46:48;;;;;;;;;;;;;;;;;;1041045;28;3774;-53
2023/09/09 01:47:19;;;;;;;;;;;;;;;;;;1042261;28;2976;-56
2023/09/09 01:47:49;;;;;;;;;;;;;;;;;;1041702;28;3927;-54
2023/09/09 01:48:19;;;;;;;;;;;;;;;;;;1037222;28;3134;-52
2023/09/09 01:48:50;;;;;;;;;;;;;;;;;;1041041;28;3899;-56
2023/09/09 01:49:20;;;;;;;;;;;;;;;;;;1042585;28;3070;-53
2023/09/09 01:49:50;;;;;;;;;;;;;;;;;;1042103;28;3759;-50
2023/09/09 01:50:21;;;;;;;;;;;;;;;;;;1043658;28;2742;-50
2023/09/09 01:50:51;;;;;;;;;;;;;;;;;;1040363;28;3941;-55
2023/09/09 01:51:21;;;;;;;;;;;;;;;;;;1041756;28;3047;-53
2023/09/09 01:51:51;;;;;;;;;;;;;;;;;;1038157;28;4068;-55
2023/09/09 01:52:22;;;;;;;;;;;;;;;;;;1038123;28;2990;-52
2023/09/09 01:52:52;;;;;;;;;;;;;;;;;;1038525;28;3831;-54
2023/09/09 01:53:22;;;;;;;;;;;;;;;;;;1037691;28;3103;-52
2023/09/09 01:53:52;;;;;;;;;;;;;;;;;;1036937;28;3929;-52
2023/09/09 01:54:23;;;;;;;;;;;;;;;;;;1038233;28;3437;-56
2023/09/09 01:54:53;;;;;;;;;;;;;;;;;;1038051;28;4093;-54
2023/09/09 01:55:23;;;;;;;;;;;;;;;;;;1037545;28;3106;-51
2023/09/09 01:55:56;;;;;;;;;;;;;;;;;;1037936;28;3783;-55
2023/09/09 01:56:26;;;;;;;;;;;;;;;;;;1037250;28;3003;-53
2023/09/09 01:56:56;;;;;;;;;;;;;;;;;;1041939;28;3951;-53
2023/09/09 01:57:27;;;;;;;;;;;;;;;;;;1042695;28;1746;-54
2023/09/09 01:57:57;;;;;;;;;;;;;;;;;;1042417;28;3872;-56
2023/09/09 01:58:27;;;;;;;;;;;;;;;;;;1040759;28;3085;-52
2023/09/09 01:58:57;;;;;;;;;;;;;;;;;;1042318;28;3833;-52
2023/09/09 01:59:28;;;;;;;;;;;;;;;;;;1043333;28;1798;-49
2023/09/09 01:59:58;;;;;;;;;;;;;;;;;;1040219;28;3988;-54
2023/09/09 02:00:29;;;;;;;;;;;;;;;;;;1040659;28;3449;-52
2023/09/09 02:00:59;;;;;;;;;;;;;;;;;;1042237;28;3762;-52
2023/09/09 02:01:30;;;;;;;;;;;;;;;;;;1042434;28;3342;-51
2023/09/09 02:02:00;;;;;;;;;;;;;;;;;;1042423;28;3755;-53
2023/09/09 02:02:30;;;;;;;;;;;;;;;;;;1043290;28;4029;-49
2023/09/09 02:03:01;;;;;;;;;;;;;;;;;;1042755;28;1973;-52
2023/09/09 02:03:31;;;;;;;;;;;;;;;;;;1042155;28;4210;-54
2023/09/09 02:04:01;;;;;;;;;;;;;;;;;;1043157;28;1533;-54
2023/09/09 02:04:32;;;;;;;;;;;;;;;;;;1041364;28;3940;-49
2023/09/09 02:05:02;;;;;;;;;;;;;;;;;;1042977;28;1868;-54
2023/09/09 02:05:33;;;;;;;;;;;;;;;;;;1041754;28;4002;-53
2023/09/09 02:06:03;;;;;;;;;;;;;;;;;;1041433;28;3085;-52
2023/09/09 02:06:34;;;;;;;;;;;;;;;;;;1040695;28;3866;-49
2023/09/09 02:07:04;;;;;;;;;;;;;;;;;;1043083;28;1637;-53
2023/09/09 02:07:34;;;;;;;;;;;;;;;;;;1042532;28;3943;-56
2023/09/09 02:08:05;;;;;;;;;;;;;;;;;;1042903;28;2976;-47
2023/09/09 02:08:35;;;;;;;;;;;;;;;;;;1042692;28;4089;-54
2023/09/09 02:09:05;;;;;;;;;;;;;;;;;;1042798;28;1594;-54
2023/09/09 02:09:35;;;;;;;;;;;;;;;;;;1041549;28;4226;-53
2023/09/09 02:10:06;;;;;;;;;;;;;;;;;;1041939;28;2812;-53
2023/09/09 02:10:36;;;;;;;;;;;;;;;;;;1041348;28;4176;-50
2023/09/09 02:11:07;;;;;;;;;;;;;;;;;;1046525;28;1664;-53
2023/09/09 02:11:37;;;;;;;;;;;;;;;;;;1046506;28;4025;-53
2023/09/09 02:12:07;;;;;;;;;;;;;;;;;;1045280;28;3079;-55
2023/09/09 02:12:38;;;;;;;;;;;;;;;;;;1046987;28;4214;-50
2023/09/09 02:13:08;;;;;;;;;;;;;;;;;;1047302;28;1675;-56
2023/09/09 02:13:38;;;;;;;;;;;;;;;;;;1046658;28;4351;-49
2023/09/09 02:14:09;;;;;;;;;;;;;;;;;;1046499;28;1709;-55
2023/09/09 02:14:39;;;;;;;;;;;;;;;;;;1044518;28;3980;-56
2023/09/09 02:15:11;;;;;;;;;;;;;;;;;;1045974;28;2046;-53
2023/09/09 02:15:41;;;;;;;;;;;;;;;;;;1044415;28;4307;-50
2023/09/09 02:16:11;;;;;;;;;;;;;;;;;;1046770;28;1684;-54
2023/09/09 02:16:42;;;;;;;;;;;;;;;;;;1046182;28;3949;-54
2023/09/09 02:17:12;;;;;;;;;;;;;;;;;;1046049;28;3121;-53
2023/09/09 02:17:45;;;;;;;;;;;;;;;;;;1045362;28;4048;-52
2023/09/09 02:18:16;;;;;;;;;;;;;;;;;;1047054;28;2523;-49
2023/09/09 02:18:47;;;;;;;;;;;;;;;;;;1045861;28;4019;-53
2023/09/09 02:19:17;;;;;;;;;;;;;;;;;;1047450;28;1668;-51
2023/09/09 02:19:50;;;;;;;;;;;;;;;;;;1045068;28;4028;-52
2023/09/09 02:20:20;;;;;;;;;;;;;;;;;;1046572;28;1478;-57
2023/09/09 02:20:56;;;;;;;;;;;;;;;;;;1047015;28;4062;-54
2023/09/09 02:21:26;;;;;;;;;;;;;;;;;;1045083;28;2939;-56
2023/09/09 02:21:56;;;;;;;;;;;;;;;;;;1045595;28;4370;-53
2023/09/09 02:22:27;;;;;;;;;;;;;;;;;;1045942;28;2958;-54
2023/09/09 02:22:57;;;;;;;;;;;;;;;;;;1045811;28;4391;-51
2023/09/09 02:23:27;;;;;;;;;;;;;;;;;;1040530;28;3586;-54
2023/09/09 02:23:58;;;;;;;;;;;;;;;;;;1041467;28;3716;-56
2023/09/09 02:24:28;;;;;;;;;;;;;;;;;;1042144;28;1863;-53
2023/09/09 02:24:58;;;;;;;;;;;;;;;;;;1041530;28;3811;-52
2023/09/09 02:25:28;;;;;;;;;;;;;;;;;;1046875;28;1390;-54
2023/09/09 02:25:59;;;;;;;;;;;;;;;;;;1047086;28;3918;-56
2023/09/09 02:26:29;;;;;;;;;;;;;;;;;;1045724;28;3284;-49
2023/09/09 02:27:00;;;;;;;;;;;;;;;;;;1046351;28;3868;-53
2023/09/09 02:27:30;;;;;;;;;;;;;;;;;;1045124;28;4174;-54
2023/09/09 02:28:00;;;;;;;;;;;;;;;;;;1047292;28;1558;-53
2023/09/09 02:28:30;;;;;;;;;;;;;;;;;;1046638;28;3957;-53
2023/09/09 02:29:01;;;;;;;;;;;;;;;;;;1047101;28;3735;-51
2023/09/09 02:29:31;;;;;;;;;;;;;;;;;;1046952;28;4074;-52
2023/09/09 02:30:01;;;;;;;;;;;;;;;;;;1047674;28;1711;-50
2023/09/09 02:30:32;;;;;;;;;;;;;;;;;;1044891;28;3898;-55
2023/09/09 02:31:02;;;;;;;;;;;;;;;;;;1046505;28;3275;-53
2023/09/09 02:31:32;;;;;;;;;;;;;;;;;;1046681;28;3955;-51
2023/09/09 02:32:03;;;;;;;;;;;;;;;;;;1047505;28;1757;-52
2023/09/09 02:32:33;;;;;;;;;;;;;;;;;;1049126;28;4466;-54
2023/09/09 02:33:03;;;;;;;;;;;;;;;;;;1049033;28;2942;-54
2023/09/09 02:33:34;;;;;;;;;;;;;;;;;;1050758;28;4033;-54
2023/09/09 02:34:04;;;;;;;;;;;;;;;;;;1051243;28;1694;-53
2023/09/09 02:34:34;;;;;;;;;;;;;;;;;;1046157;28;3888;-52
2023/09/09 02:35:07;;;;;;;;;;;;;;;;;;1045539;28;3056;-50
2023/09/09 02:35:44;;;;;;;;;;;;;;;;;;1047396;28;3876;-51
2023/09/09 02:36:14;;;;;;;;;;;;;;;;;;1046588;28;1693;-53
2023/09/09 02:36:45;;;;;;;;;;;;;;;;;;1046208;28;4032;-50
2023/09/09 02:37:17;;;;;;;;;;;;;;;;;;1045556;28;2886;-55
2023/09/09 02:37:47;;;;;;;;;;;;;;;;;;1045556;28;4059;-55
2023/09/09 02:38:17;;;;;;;;;;;;;;;;;;1045881;28;3085;-52
2023/09/09 02:38:47;;;;;;;;;;;;;;;;;;1046480;28;3925;-53
2023/09/09 02:39:18;;;;;;;;;;;;;;;;;;1047135;28;1712;-53
2023/09/09 02:39:49;;;;;;;;;;;;;;;;;;1046752;28;4192;-52
2023/09/09 02:40:19;;;;;;;;;;;;;;;;;;1045611;28;3028;-53
2023/09/09 02:40:49;;;;;;;;;;;;;;;;;;1043524;28;4019;-56
2023/09/09 02:41:20;;;;;;;;;;;;;;;;;;1045559;28;3009;-51
2023/09/09 02:41:50;;;;;;;;;;;;;;;;;;1046009;28;4053;-54
2023/09/09 02:42:21;;;;;;;;;;;;;;;;;;1048921;28;3028;-51
2023/09/09 02:42:51;;;;;;;;;;;;;;;;;;1049277;28;4184;-54
2023/09/09 02:43:22;;;;;;;;;;;;;;;;;;1050541;28;1875;-52
2023/09/09 02:43:52;;;;;;;;;;;;;;;;;;1050428;28;4000;-54
2023/09/09 02:44:24;;;;;;;;;;;;;;;;;;1045894;28;3151;-49
2023/09/09 02:44:54;;;;;;;;;;;;;;;;;;1046549;28;3760;-55
2023/09/09 02:45:25;;;;;;;;;;;;;;;;;;1044748;28;3116;-52
2023/09/09 02:45:55;;;;;;;;;;;;;;;;;;1045566;28;4029;-56
2023/09/09 02:46:25;;;;;;;;;;;;;;;;;;1046780;28;1828;-51
2023/09/09 02:46:55;;;;;;;;;;;;;;;;;;1045917;28;4113;-51
2023/09/09 02:47:26;;;;;;;;;;;;;;;;;;1046122;28;3152;-55
2023/09/09 02:47:56;;;;;;;;;;;;;;;;;;1045761;28;4365;-54
2023/09/09 02:48:26;;;;;;;;;;;;;;;;;;1046843;28;1579;-53
2023/09/09 02:48:57;;;;;;;;;;;;;;;;;;1046332;28;3727;-54
2023/09/09 02:49:27;;;;;;;;;;;;;;;;;;1045683;28;3106;-50
2023/09/09 02:49:57;;;;;;;;;;;;;;;;;;1045273;28;4376;-57
2023/09/09 02:50:27;;;;;;;;;;;;;;;;;;1046334;28;2710;-52
2023/09/09 02:50:58;;;;;;;;;;;;;;;;;;1046563;28;3709;-57
2023/09/09 02:51:28;;;;;;;;;;;;;;;;;;1047099;28;1703;-52
2023/09/09 02:51:58;;;;;;;;;;;;;;;;;;1044564;28;3862;-55
2023/09/09 02:52:29;;;;;;;;;;;;;;;;;;1046524;28;2702;-52
2023/09/09 02:52:59;;;;;;;;;;;;;;;;;;1046092;28;3720;-56
2023/09/09 02:53:30;;;;;;;;;;;;;;;;;;1045400;28;3091;-52
2023/09/09 02:54:00;;;;;;;;;;;;;;;;;;1046528;28;5368;-54
2023/09/09 02:54:30;;;;;;;;;;;;;;;;;;1046703;28;4106;-51
2023/09/09 02:55:01;;;;;;;;;;;;;;;;;;1043743;28;3627;-56
2023/09/09 02:55:31;;;;;;;;;;;;;;;;;;1044702;28;3935;-54
2023/09/09 02:56:01;;;;;;;;;;;;;;;;;;1046665;28;3414;-56
2023/09/09 02:56:31;;;;;;;;;;;;;;;;;;1046178;28;3925;-55
2023/09/09 02:57:03;;;;;;;;;;;;;;;;;;1047528;28;2532;-53
2023/09/09 02:57:34;;;;;;;;;;;;;;;;;;1047793;28;4027;-55
2023/09/09 02:58:04;;;;;;;;;;;;;;;;;;1047210;28;3099;-52
2023/09/09 02:58:34;;;;;;;;;;;;;;;;;;1046082;28;4126;-56
2023/09/09 02:59:05;;;;;;;;;;;;;;;;;;1047385;28;3414;-55
2023/09/09 02:59:36;;;;;;;;;;;;;;;;;;1044354;28;5011;-51
2023/09/09 03:00:09;;;;;;;;;;;;;;;;;;1044563;28;3138;-53
2023/09/09 03:00:40;;;;;;;;;;;;;;;;;;1045031;28;3825;-56
2023/09/09 03:01:10;;;;;;;;;;;;;;;;;;1047620;28;1599;-57
2023/09/09 03:01:41;;;;;;;;;;;;;;;;;;1046016;28;3976;-54
2023/09/09 03:02:11;;;;;;;;;;;;;;;;;;1046889;28;3343;-52
2023/09/09 03:02:44;;;;;;;;;;;;;;;;;;1044326;28;3978;-55
2023/09/09 03:03:20;;;;;;;;;;;;;;;;;;1046207;28;3059;-53
2023/09/09 03:03:50;;;;;;;;;;;;;;;;;;1047339;28;4057;-53
2023/09/09 03:04:20;;;;;;;;;;;;;;;;;;1044659;28;3041;-54
2023/09/09 03:04:51;;;;;;;;;;;;;;;;;;1046332;28;3951;-50
2023/09/09 03:05:21;;;;;;;;;;;;;;;;;;1047564;28;1401;-55
2023/09/09 03:05:51;;;;;;;;;;;;;;;;;;1047292;28;3709;-54
2023/09/09 03:06:22;;;;;;;;;;;;;;;;;;1046085;28;3083;-57
2023/09/09 03:06:52;;;;;;;;;;;;;;;;;;1047323;28;3784;-50
2023/09/09 03:07:22;;;;;;;;;;;;;;;;;;1047881;28;1865;-53
2023/09/09 03:07:53;;;;;;;;;;;;;;;;;;1045297;28;4063;-55
2023/09/09 03:08:23;;;;;;;;;;;;;;;;;;1047219;28;3121;-54
2023/09/09 03:08:53;;;;;;;;;;;;;;;;;;1045449;28;3802;-52
2023/09/09 03:09:25;;;;;;;;;;;;;;;;;;1047681;28;2374;-56
2023/09/09 03:09:55;;;;;;;;;;;;;;;;;;1043982;28;4212;-54
2023/09/09 03:10:25;;;;;;;;;;;;;;;;;;1046018;28;2804;-55
2023/09/09 03:10:55;;;;;;;;;;;;;;;;;;1045946;28;3689;-54
2023/09/09 03:11:26;;;;;;;;;;;;;;;;;;1047638;28;3193;-53
2023/09/09 03:11:56;;;;;;;;;;;;;;;;;;1045857;28;4040;-53
2023/09/09 03:12:27;;;;;;;;;;;;;;;;;;1047378;28;3099;-54
2023/09/09 03:12:58;;;;;;;;;;;;;;;;;;1045855;28;3781;-53
2023/09/09 03:13:28;;;;;;;;;;;;;;;;;;1046997;28;3144;-52
2023/09/09 03:13:59;;;;;;;;;;;;;;;;;;1045985;28;3964;-54
2023/09/09 03:14:29;;;;;;;;;;;;;;;;;;1047605;28;1663;-52
2023/09/09 03:14:59;;;;;;;;;;;;;;;;;;1045716;28;4056;-52
2023/09/09 03:15:30;;;;;;;;;;;;;;;;;;1046781;28;3140;-53
2023/09/09 03:16:00;;;;;;;;;;;;;;;;;;1047336;28;3841;-53
2023/09/09 03:16:30;;;;;;;;;;;;;;;;;;1047345;28;3962;-58
2023/09/09 03:17:01;;;;;;;;;;;;;;;;;;1046635;28;3109;-51
2023/09/09 03:17:31;;;;;;;;;;;;;;;;;;1046041;28;3792;-53
2023/09/09 03:18:03;;;;;;;;;;;;;;;;;;1046715;28;3068;-52
2023/09/09 03:18:33;;;;;;;;;;;;;;;;;;1045541;28;3853;-53
2023/09/09 03:19:03;;;;;;;;;;;;;;;;;;1046062;28;3226;-56
2023/09/09 03:19:34;;;;;;;;;;;;;;;;;;1046189;28;4028;-51
2023/09/09 03:20:05;;;;;;;;;;;;;;;;;;1047881;28;1790;-57
2023/09/09 03:20:35;;;;;;;;;;;;;;;;;;1046078;28;3873;-49
2023/09/09 03:21:06;;;;;;;;;;;;;;;;;;1048076;28;1671;-56
2023/09/09 03:21:36;;;;;;;;;;;;;;;;;;1048918;28;4070;-52
2023/09/09 03:22:06;;;;;;;;;;;;;;;;;;1052213;28;1458;-50
2023/09/09 03:22:36;;;;;;;;;;;;;;;;;;1050501;28;4001;-52
2023/09/09 03:23:07;;;;;;;;;;;;;;;;;;1050706;28;2920;-53
2023/09/09 03:23:37;;;;;;;;;;;;;;;;;;1042447;28;3932;-53
2023/09/09 03:24:07;;;;;;;;;;;;;;;;;;1048101;28;1726;-51
2023/09/09 03:24:38;;;;;;;;;;;;;;;;;;1042301;28;3872;-54
2023/09/09 03:25:08;;;;;;;;;;;;;;;;;;1041910;28;3093;-54
2023/09/09 03:25:39;;;;;;;;;;;;;;;;;;1040957;28;3772;-52
2023/09/09 03:26:09;;;;;;;;;;;;;;;;;;1040530;28;1913;-57
2023/09/09 03:26:40;;;;;;;;;;;;;;;;;;1042015;28;4067;-54
2023/09/09 03:27:10;;;;;;;;;;;;;;;;;;1041360;28;3627;-54
2023/09/09 03:27:40;;;;;;;;;;;;;;;;;;1047492;28;3933;-53
2023/09/09 03:28:10;;;;;;;;;;;;;;;;;;1049218;28;3075;-50
2023/09/09 03:28:41;;;;;;;;;;;;;;;;;;1051632;28;3989;-54
2023/09/09 03:29:11;;;;;;;;;;;;;;;;;;1049561;28;3106;-56
2023/09/09 03:29:41;;;;;;;;;;;;;;;;;;1047651;28;4020;-54
2023/09/09 03:30:12;;;;;;;;;;;;;;;;;;1045863;28;3344;-54
2023/09/09 03:30:55;;;;;;;;;;;;;;;;;;1045499;28;3868;-49
2023/09/09 03:31:25;;;;;;;;;;;;;;;;;;1046108;28;2832;-57
2023/09/09 03:31:56;;;;;;;;;;;;;;;;;;1047771;28;3997;-54
2023/09/09 03:32:26;;;;;;;;;;;;;;;;;;1046785;28;2763;-54
2023/09/09 03:32:57;;;;;;;;;;;;;;;;;;1047343;28;4029;-53
2023/09/09 03:33:27;;;;;;;;;;;;;;;;;;1045649;28;3012;-52
2023/09/09 03:33:57;;;;;;;;;;;;;;;;;;1046970;28;4007;-51